createdAt,value
2022-09-15T00:02:22.481Z,85.14
2022-09-15T00:04:49.452Z,85.08
2022-09-15T00:07:17.209Z,85.25
2022-09-15T00:09:43.946Z,85.34
2022-09-15T00:12:10.722Z,85.32
2022-09-15T00:14:37.592Z,85.07
2022-09-15T00:17:04.437Z,84.92
2022-09-15T00:19:31.304Z,84.80
2022-09-15T00:21:58.158Z,84.40
2022-09-15T00:24:24.912Z,84.17
2022-09-15T00:26:51.778Z,84.05
2022-09-15T00:29:18.969Z,83.94
2022-09-15T00:31:45.741Z,83.94
2022-09-15T00:34:14.155Z,83.80
2022-09-15T00:36:41.031Z,83.69
2022-09-15T00:39:07.880Z,83.83
2022-09-15T00:41:34.669Z,83.78
2022-09-15T00:44:05.028Z,83.79
2022-09-15T00:46:34.724Z,83.79
2022-09-15T00:49:17.745Z,83.98
2022-09-15T00:51:49.300Z,83.99
2022-09-15T00:54:20.299Z,83.96
2022-09-15T00:56:49.562Z,84.36
2022-09-15T00:59:20.767Z,84.40
2022-09-15T01:01:55.246Z,84.49
2022-09-15T01:04:22.378Z,84.61
2022-09-15T01:06:55.554Z,84.43
2022-09-15T01:09:29.678Z,84.43
2022-09-15T01:11:56.951Z,84.35
2022-09-15T01:14:23.783Z,84.22
2022-09-15T01:16:59.179Z,84.39
2022-09-15T01:19:42.808Z,84.44
2022-09-15T01:22:32.938Z,84.96
2022-09-15T01:25:22.933Z,85.26
2022-09-15T01:28:22.893Z,85.57
2022-09-15T01:31:00.438Z,85.89
2022-09-15T01:33:34.628Z,86.09
2022-09-15T01:36:05.566Z,86.24
2022-09-15T01:38:55.944Z,86.39
2022-09-15T01:41:30.138Z,86.46
2022-09-15T01:44:15.212Z,86.46
2022-09-15T01:46:47.283Z,86.62
2022-09-15T01:49:19.484Z,87.01
2022-09-15T01:51:48.602Z,87.08
2022-09-15T01:54:19.472Z,87.29
2022-09-15T01:56:46.533Z,87.41
2022-09-15T01:59:13.424Z,87.53
2022-09-15T02:01:49.822Z,87.89
2022-09-15T02:04:27.967Z,87.92
2022-09-15T02:07:02.604Z,88.23
2022-09-15T02:09:36.999Z,88.29
2022-09-15T02:12:20.748Z,88.35
2022-09-15T02:15:08.170Z,88.41
2022-09-15T02:17:39.140Z,88.60
2022-09-15T02:20:16.160Z,88.56
2022-09-15T02:22:48.852Z,88.82
2022-09-15T02:25:22.017Z,88.98
2022-09-15T02:27:55.165Z,88.94
2022-09-15T02:30:22.612Z,89.12
2022-09-15T02:32:56.331Z,89.21
2022-09-15T02:35:26.092Z,89.24
2022-09-15T02:37:54.613Z,89.25
2022-09-15T02:40:22.593Z,89.29
2022-09-15T02:42:56.075Z,89.41
2022-09-15T02:45:24.901Z,89.60
2022-09-15T02:47:51.743Z,89.73
2022-09-15T02:50:20.531Z,89.76
2022-09-15T02:52:47.264Z,89.94
2022-09-15T02:55:14.084Z,90.05
2022-09-15T02:57:40.886Z,90.17
2022-09-15T03:00:13.968Z,90.19
2022-09-15T03:02:42.263Z,90.39
2022-09-15T03:05:10.538Z,90.30
2022-09-15T03:07:38.608Z,90.39
2022-09-15T03:10:07.434Z,90.33
2022-09-15T03:12:39.985Z,90.37
2022-09-15T03:15:08.907Z,90.45
2022-09-15T03:17:37.339Z,90.47
2022-09-15T03:20:06.132Z,90.46
2022-09-15T03:22:32.939Z,90.47
2022-09-15T03:24:59.693Z,90.42
2022-09-15T03:27:27.051Z,90.38
2022-09-15T03:29:54.112Z,90.24
2022-09-15T03:32:20.881Z,90.43
2022-09-15T03:34:47.661Z,90.27
2022-09-15T03:37:14.560Z,90.20
2022-09-15T03:39:41.412Z,90.05
2022-09-15T03:42:08.214Z,89.97
2022-09-15T03:44:35.929Z,89.93
2022-09-15T03:47:04.080Z,90.01
2022-09-15T03:49:30.892Z,89.79
2022-09-15T03:51:58.959Z,89.70
2022-09-15T03:54:26.707Z,89.56
2022-09-15T03:56:53.677Z,89.45
2022-09-15T03:59:20.886Z,89.12
2022-09-15T04:01:49.430Z,88.94
2022-09-15T04:04:17.586Z,88.88
2022-09-15T04:06:44.988Z,88.69
2022-09-15T04:09:12.057Z,88.43
2022-09-15T04:11:40.908Z,88.23
2022-09-15T04:14:07.741Z,88.28
2022-09-15T04:16:34.625Z,88.16
2022-09-15T04:19:01.641Z,88.20
2022-09-15T04:21:28.473Z,88.10
2022-09-15T04:23:55.464Z,88.23
2022-09-15T04:26:27.726Z,88.23
2022-09-15T04:28:54.604Z,88.17
2022-09-15T04:31:21.499Z,87.99
2022-09-15T04:33:48.397Z,87.83
2022-09-15T04:36:19.417Z,87.90
2022-09-15T04:38:46.414Z,87.98
2022-09-15T04:41:14.642Z,87.89
2022-09-15T04:43:43.372Z,87.89
2022-09-15T04:46:11.478Z,87.86
2022-09-15T04:48:38.346Z,87.77
2022-09-15T04:51:08.353Z,87.68
2022-09-15T04:53:35.832Z,87.63
2022-09-15T04:56:05.581Z,87.65
2022-09-15T04:58:38.022Z,87.46
2022-09-15T05:01:10.616Z,87.40
2022-09-15T05:03:38.248Z,87.22
2022-09-15T05:06:07.183Z,87.09
2022-09-15T05:08:33.934Z,86.94
2022-09-15T05:11:02.380Z,86.73
2022-09-15T05:13:29.406Z,86.77
2022-09-15T05:15:56.248Z,86.70
2022-09-15T05:18:23.024Z,86.42
2022-09-15T05:20:49.767Z,86.41
2022-09-15T05:23:16.568Z,86.39
2022-09-15T05:25:43.410Z,85.95
2022-09-15T05:28:10.157Z,85.70
2022-09-15T05:30:44.082Z,85.59
2022-09-15T05:33:11.346Z,85.35
2022-09-15T05:35:38.114Z,85.34
2022-09-15T05:38:04.866Z,85.42
2022-09-15T05:40:33.273Z,85.45
2022-09-15T05:43:00.002Z,85.55
2022-09-15T05:45:26.896Z,85.22
2022-09-15T05:47:54.035Z,85.44
2022-09-15T05:50:20.834Z,85.33
2022-09-15T05:52:51.584Z,85.52
2022-09-15T05:55:18.615Z,85.37
2022-09-15T05:57:45.357Z,85.19
2022-09-15T06:00:12.939Z,85.02
2022-09-15T06:02:40.041Z,84.58
2022-09-15T06:05:07.133Z,84.94
2022-09-15T06:07:34.254Z,84.75
2022-09-15T06:10:00.996Z,84.73
2022-09-15T06:12:28.173Z,84.79
2022-09-15T06:14:54.975Z,85.01
2022-09-15T06:17:23.266Z,84.97
2022-09-15T06:19:50.009Z,85.03
2022-09-15T06:22:16.794Z,85.02
2022-09-15T06:24:43.536Z,85.40
2022-09-15T06:27:10.341Z,85.24
2022-09-15T06:29:37.116Z,85.22
2022-09-15T06:32:05.196Z,85.04
2022-09-15T06:34:33.502Z,84.63
2022-09-15T06:37:00.242Z,83.81
2022-09-15T06:39:27.173Z,82.37
2022-09-15T06:42:02.333Z,81.15
2022-09-15T06:44:30.403Z,80.61
2022-09-15T06:46:57.223Z,80.55
2022-09-15T06:49:24.120Z,80.37
2022-09-15T06:51:51.068Z,80.45
2022-09-15T06:54:18.095Z,80.52
2022-09-15T06:56:45.040Z,80.42
2022-09-15T06:59:12.813Z,80.56
2022-09-15T07:01:39.673Z,80.52
2022-09-15T07:04:10.679Z,80.58
2022-09-15T07:06:39.612Z,80.57
2022-09-15T07:09:07.311Z,80.55
2022-09-15T07:11:34.544Z,80.56
2022-09-15T07:14:01.429Z,80.76
2022-09-15T07:16:28.319Z,80.72
2022-09-15T07:18:57.260Z,80.58
2022-09-15T07:21:24.769Z,80.44
2022-09-15T07:23:51.809Z,80.38
2022-09-15T07:26:28.834Z,80.21
2022-09-15T07:28:58.479Z,80.22
2022-09-15T07:31:28.300Z,80.55
2022-09-15T07:33:55.606Z,80.82
2022-09-15T07:36:22.771Z,81.03
2022-09-15T07:38:50.128Z,81.40
2022-09-15T07:41:21.193Z,81.40
2022-09-15T07:43:49.979Z,81.46
2022-09-15T07:46:17.879Z,81.67
2022-09-15T07:48:46.080Z,81.60
2022-09-15T07:51:13.428Z,81.18
2022-09-15T07:53:40.281Z,81.03
2022-09-15T07:56:08.152Z,81.08
2022-09-15T07:58:35.086Z,80.99
2022-09-15T08:01:04.226Z,81.04
2022-09-15T08:03:31.218Z,81.13
2022-09-15T08:05:59.754Z,81.19
2022-09-15T08:08:26.992Z,80.84
2022-09-15T08:10:53.754Z,80.15
2022-09-15T08:13:20.514Z,79.70
2022-09-15T08:15:48.482Z,79.83
2022-09-15T08:18:15.434Z,78.42
2022-09-15T08:20:43.214Z,76.98
2022-09-15T08:23:11.406Z,75.47
2022-09-15T08:25:39.010Z,74.62
2022-09-15T08:28:05.959Z,74.35
2022-09-15T08:30:32.673Z,74.34
2022-09-15T08:32:59.454Z,73.77
2022-09-15T08:35:26.254Z,74.35
2022-09-15T08:37:55.336Z,74.32
2022-09-15T08:40:28.499Z,74.72
2022-09-15T08:43:00.567Z,74.89
2022-09-15T08:45:31.181Z,75.27
2022-09-15T08:48:03.355Z,75.76
2022-09-15T08:50:39.920Z,75.57
2022-09-15T08:53:13.246Z,75.09
2022-09-15T08:55:46.931Z,74.54
2022-09-15T08:58:18.926Z,74.92
2022-09-15T09:00:48.785Z,76.14
2022-09-15T09:03:31.255Z,76.87
2022-09-15T09:06:02.672Z,77.71
2022-09-15T09:08:34.494Z,77.60
2022-09-15T09:11:10.362Z,76.99
2022-09-15T09:13:38.013Z,76.87
2022-09-15T09:16:36.327Z,77.69
2022-09-15T09:19:28.025Z,78.42
2022-09-15T09:22:08.083Z,78.74
2022-09-15T09:24:41.554Z,78.75
2022-09-15T09:27:19.180Z,77.31
2022-09-15T09:29:50.105Z,77.58
2022-09-15T09:32:24.737Z,76.97
2022-09-15T09:35:01.242Z,76.15
2022-09-15T09:37:28.550Z,76.11
2022-09-15T09:39:55.316Z,76.29
2022-09-15T09:42:28.836Z,75.78
2022-09-15T09:44:55.839Z,75.43
2022-09-15T09:47:28.020Z,75.20
2022-09-15T09:49:54.732Z,75.00
2022-09-15T09:52:38.616Z,75.25
2022-09-15T09:55:21.776Z,75.52
2022-09-15T09:57:48.811Z,75.47
2022-09-15T10:00:31.745Z,74.11
2022-09-15T10:02:58.490Z,74.35
2022-09-15T10:05:25.470Z,73.21
2022-09-15T10:07:52.259Z,73.40
2022-09-15T10:10:23.885Z,72.88
2022-09-15T10:12:56.214Z,73.91
2022-09-15T10:15:25.520Z,71.87
2022-09-15T10:17:55.263Z,70.89
2022-09-15T10:20:38.236Z,69.80
2022-09-15T10:23:23.160Z,69.15
2022-09-15T10:26:00.200Z,69.59
2022-09-15T10:28:28.120Z,69.35
2022-09-15T10:31:11.628Z,68.22
2022-09-15T10:33:42.163Z,68.92
2022-09-15T10:36:32.162Z,69.53
2022-09-15T10:39:23.374Z,69.74
2022-09-15T10:42:07.816Z,69.15
2022-09-15T10:44:50.232Z,69.72
2022-09-15T10:47:33.792Z,69.48
2022-09-15T10:50:25.501Z,68.89
2022-09-15T10:53:00.515Z,68.91
2022-09-15T10:55:52.619Z,69.47
2022-09-15T10:58:42.160Z,68.51
2022-09-15T11:01:28.826Z,68.93
2022-09-15T11:04:06.859Z,70.73
2022-09-15T11:06:50.484Z,71.34
2022-09-15T11:09:35.927Z,70.78
2022-09-15T11:12:10.645Z,70.40
2022-09-15T11:15:10.142Z,69.54
2022-09-15T11:17:52.927Z,69.74
2022-09-15T11:20:29.027Z,70.72
2022-09-15T11:23:07.238Z,71.21
2022-09-15T11:25:41.542Z,71.38
2022-09-15T11:28:22.301Z,71.04
2022-09-15T11:31:09.919Z,71.36
2022-09-15T11:33:46.879Z,71.65
2022-09-15T11:36:18.293Z,71.00
2022-09-15T11:38:54.677Z,72.28
2022-09-15T11:41:44.557Z,72.06
2022-09-15T11:44:25.002Z,72.82
2022-09-15T11:47:13.741Z,71.69
2022-09-15T11:50:01.487Z,72.61
2022-09-15T11:52:48.175Z,73.23
2022-09-15T11:55:46.251Z,73.10
2022-09-15T11:58:44.479Z,72.78
2022-09-15T12:01:11.792Z,73.17
2022-09-15T12:04:02.031Z,73.69
2022-09-15T12:06:43.264Z,73.16
2022-09-15T12:09:15.172Z,73.19
2022-09-15T12:11:46.847Z,71.64
2022-09-15T12:14:22.555Z,71.28
2022-09-15T12:16:50.218Z,70.15
2022-09-15T12:19:37.622Z,69.74
2022-09-15T12:22:17.554Z,70.16
2022-09-15T12:24:53.506Z,69.94
2022-09-15T12:27:21.269Z,70.64
2022-09-15T12:29:53.907Z,71.08
2022-09-15T12:32:24.164Z,70.89
2022-09-15T12:35:13.388Z,70.92
2022-09-15T12:37:42.947Z,70.58
2022-09-15T12:40:26.242Z,71.02
2022-09-15T12:42:53.875Z,71.53
2022-09-15T12:45:27.536Z,71.68
2022-09-15T12:48:02.613Z,71.97
2022-09-15T12:50:36.573Z,72.25
2022-09-15T12:53:14.811Z,72.14
2022-09-15T12:55:51.168Z,72.14
2022-09-15T12:58:28.456Z,71.84
2022-09-15T13:01:19.301Z,72.32
2022-09-15T13:03:48.864Z,72.64
2022-09-15T13:06:34.360Z,73.27
2022-09-15T13:09:01.719Z,73.27
2022-09-15T13:11:38.285Z,73.56
2022-09-15T13:14:06.950Z,74.33
2022-09-15T13:16:43.879Z,74.35
2022-09-15T13:19:15.404Z,74.69
2022-09-15T13:21:48.002Z,73.92
2022-09-15T13:24:23.898Z,74.34
2022-09-15T13:26:55.811Z,75.35
2022-09-15T13:29:24.588Z,76.76
2022-09-15T13:32:02.267Z,77.48
2022-09-15T13:35:04.123Z,77.41
2022-09-15T13:38:08.043Z,77.09
2022-09-15T13:40:51.808Z,75.85
2022-09-15T13:43:40.629Z,75.33
2022-09-15T13:46:12.630Z,74.91
2022-09-15T13:49:00.541Z,74.44
2022-09-15T13:51:30.087Z,74.61
2022-09-15T13:54:02.883Z,75.36
2022-09-15T13:56:35.800Z,74.98
2022-09-15T13:59:11.238Z,75.14
2022-09-15T14:01:42.262Z,75.11
2022-09-15T14:04:16.817Z,75.51
2022-09-15T14:06:47.012Z,76.06
2022-09-15T14:09:18.587Z,76.46
2022-09-15T14:11:49.010Z,76.66
2022-09-15T14:14:34.739Z,76.66
2022-09-15T14:17:01.622Z,77.08
2022-09-15T14:19:38.435Z,78.13
2022-09-15T14:22:21.253Z,78.57
2022-09-15T14:24:50.157Z,78.93
2022-09-15T14:27:24.224Z,78.90
2022-09-15T14:29:55.466Z,78.64
2022-09-15T14:32:22.678Z,78.62
2022-09-15T14:34:51.122Z,78.60
2022-09-15T14:37:27.627Z,78.19
2022-09-15T14:39:57.512Z,77.96
2022-09-15T14:42:32.551Z,77.76
2022-09-15T14:48:08.072Z,79.07
2022-09-15T14:50:35.555Z,79.22
2022-09-15T14:53:04.496Z,79.32
2022-09-15T14:55:33.046Z,79.10
2022-09-15T14:58:02.420Z,78.81
2022-09-15T15:00:34.689Z,78.94
2022-09-15T15:03:17.617Z,78.95
2022-09-15T15:05:58.037Z,79.54
2022-09-15T15:08:30.217Z,79.44
2022-09-15T15:10:58.855Z,79.73
2022-09-15T15:13:26.423Z,80.50
2022-09-15T15:15:53.569Z,81.03
2022-09-15T15:18:37.393Z,81.00
2022-09-15T15:21:05.040Z,80.53
2022-09-15T15:23:32.388Z,80.43
2022-09-15T15:26:30.657Z,80.22
2022-09-15T15:28:57.408Z,79.91
2022-09-15T15:31:28.046Z,80.19
2022-09-15T15:33:59.366Z,80.22
2022-09-15T15:36:28.694Z,80.44
2022-09-15T15:39:06.649Z,80.59
2022-09-15T15:41:42.257Z,80.69
2022-09-15T15:44:17.055Z,80.66
2022-09-15T15:46:49.963Z,80.80
2022-09-15T15:49:18.081Z,80.76
2022-09-15T15:51:44.914Z,80.87
2022-09-15T15:54:11.872Z,81.16
2022-09-15T15:56:41.117Z,80.37
2022-09-15T15:59:11.939Z,80.22
2022-09-15T16:01:38.795Z,80.03
2022-09-15T16:04:06.350Z,79.92
2022-09-15T16:06:33.923Z,79.91
2022-09-15T16:09:01.559Z,79.76
2022-09-15T16:11:28.628Z,79.62
2022-09-15T16:13:56.199Z,79.35
2022-09-15T16:16:26.298Z,79.49
2022-09-15T16:18:53.565Z,79.39
2022-09-15T16:21:26.216Z,79.17
2022-09-15T16:23:53.111Z,79.28
2022-09-15T16:26:23.272Z,78.97
2022-09-15T16:28:51.256Z,79.44
2022-09-15T16:31:18.075Z,79.14
2022-09-15T16:33:44.922Z,79.53
2022-09-15T16:36:15.923Z,79.88
2022-09-15T16:38:43.366Z,79.86
2022-09-15T16:41:20.056Z,79.61
2022-09-15T16:43:47.474Z,79.55
2022-09-15T16:46:14.936Z,79.36
2022-09-15T16:48:43.557Z,79.31
2022-09-15T16:51:26.662Z,78.72
2022-09-15T16:53:56.926Z,78.24
2022-09-15T16:56:23.770Z,77.69
2022-09-15T16:58:54.799Z,78.13
2022-09-15T17:01:25.327Z,78.03
2022-09-15T17:03:52.057Z,78.45
2022-09-15T17:06:19.040Z,78.30
2022-09-15T17:08:46.117Z,78.40
2022-09-15T17:11:16.729Z,78.74
2022-09-15T17:13:44.786Z,78.85
2022-09-15T17:16:14.956Z,78.96
2022-09-15T17:18:41.781Z,79.21
2022-09-15T17:21:11.843Z,79.41
2022-09-15T17:23:42.967Z,79.75
2022-09-15T17:26:13.014Z,79.96
2022-09-15T17:28:40.991Z,79.88
2022-09-15T17:31:17.857Z,79.98
2022-09-15T17:33:45.175Z,79.99
2022-09-15T17:36:12.038Z,80.03
2022-09-15T17:38:41.214Z,80.19
2022-09-15T17:41:13.929Z,80.47
2022-09-15T17:43:40.618Z,80.66
2022-09-15T17:46:08.980Z,80.91
2022-09-15T17:48:38.652Z,80.99
2022-09-15T17:51:07.187Z,80.94
2022-09-15T17:53:35.269Z,80.99
2022-09-15T17:56:02.212Z,80.85
2022-09-15T17:58:31.436Z,80.90
2022-09-15T18:00:59.022Z,81.16
2022-09-15T18:03:29.157Z,81.06
2022-09-15T18:05:58.383Z,80.79
2022-09-15T18:08:26.384Z,80.63
2022-09-15T18:10:53.845Z,80.23
2022-09-15T18:13:23.977Z,79.49
2022-09-15T18:15:51.322Z,79.13
2022-09-15T18:18:21.195Z,79.28
2022-09-15T18:20:50.015Z,79.20
2022-09-15T18:23:19.658Z,79.12
2022-09-15T18:25:47.489Z,79.07
2022-09-15T18:28:15.864Z,79.08
2022-09-15T18:30:44.820Z,78.70
2022-09-15T18:33:18.677Z,78.82
2022-09-15T18:35:46.823Z,78.69
2022-09-15T18:38:13.983Z,78.78
2022-09-15T18:40:46.074Z,78.82
2022-09-15T18:43:12.977Z,79.24
2022-09-15T18:45:41.893Z,79.26
2022-09-15T18:48:12.735Z,79.22
2022-09-15T18:50:41.652Z,79.29
2022-09-15T18:53:09.145Z,79.59
2022-09-15T18:55:35.910Z,79.90
2022-09-15T18:58:02.877Z,80.06
2022-09-15T19:00:29.835Z,80.27
2022-09-15T19:03:01.629Z,80.42
2022-09-15T19:05:30.199Z,80.85
2022-09-15T19:07:57.595Z,81.04
2022-09-15T19:10:25.627Z,81.30
2022-09-15T19:12:53.162Z,81.16
2022-09-15T19:15:23.648Z,81.06
2022-09-15T19:17:50.746Z,80.78
2022-09-15T19:20:17.641Z,80.33
2022-09-15T19:22:44.449Z,80.33
2022-09-15T19:25:12.248Z,80.39
2022-09-15T19:27:39.886Z,80.88
2022-09-15T19:30:10.459Z,81.37
2022-09-15T19:32:39.380Z,81.57
2022-09-15T19:35:06.907Z,81.72
2022-09-15T19:37:37.553Z,81.76
2022-09-15T19:40:08.723Z,81.51
2022-09-15T19:42:36.802Z,81.30
2022-09-15T19:45:04.095Z,81.15
2022-09-15T19:47:30.897Z,81.22
2022-09-15T19:49:58.125Z,81.51
2022-09-15T19:52:25.554Z,81.44
2022-09-15T19:54:52.308Z,81.36
2022-09-15T19:57:19.300Z,81.54
2022-09-15T19:59:46.064Z,81.64
2022-09-15T20:02:13.413Z,81.62
2022-09-15T20:07:24.960Z,81.93
2022-09-15T20:10:07.851Z,82.16
2022-09-15T20:12:34.897Z,82.60
2022-09-15T20:15:01.920Z,82.73
2022-09-15T20:17:28.944Z,83.01
2022-09-15T20:19:55.882Z,83.26
2022-09-15T20:22:23.045Z,83.23
2022-09-15T20:24:49.936Z,83.31
2022-09-15T20:27:16.791Z,83.48
2022-09-15T20:29:43.606Z,83.67
2022-09-15T20:32:10.447Z,83.79
2022-09-15T20:34:37.288Z,83.86
2022-09-15T20:37:04.310Z,83.99
2022-09-15T20:39:31.110Z,83.89
2022-09-15T20:41:58.162Z,84.02
2022-09-15T20:44:25.083Z,83.86
2022-09-15T20:46:52.638Z,83.83
2022-09-15T20:49:20.074Z,83.92
2022-09-15T20:51:46.995Z,84.07
2022-09-15T20:54:13.958Z,84.13
2022-09-15T20:56:41.075Z,84.16
2022-09-15T20:59:10.403Z,84.44
2022-09-15T21:01:38.948Z,84.63
2022-09-15T21:04:08.246Z,84.68
2022-09-15T21:06:35.986Z,84.80
2022-09-15T21:09:04.364Z,85.05
2022-09-15T21:11:31.674Z,85.03
2022-09-15T21:13:58.953Z,85.01
2022-09-15T21:16:28.255Z,84.99
2022-09-15T21:18:57.074Z,85.15
2022-09-15T21:21:26.333Z,85.20
2022-09-15T21:23:55.663Z,85.06
2022-09-15T21:26:24.994Z,85.04
2022-09-15T21:28:51.906Z,85.08
2022-09-15T21:31:21.331Z,85.01
2022-09-15T21:33:49.296Z,85.02
2022-09-15T21:36:21.441Z,85.00
2022-09-15T21:38:49.815Z,85.06
2022-09-15T21:41:18.915Z,85.02
2022-09-15T21:43:46.771Z,85.12
2022-09-15T21:46:16.996Z,85.24
2022-09-15T21:48:46.236Z,85.38
2022-09-15T21:51:14.552Z,85.42
2022-09-15T21:53:43.181Z,85.40
2022-09-15T21:56:12.061Z,85.33
2022-09-15T21:58:42.862Z,85.24
2022-09-15T22:01:13.293Z,85.09
2022-09-15T22:03:42.333Z,84.84
2022-09-15T22:06:11.574Z,84.70
2022-09-15T22:08:39.950Z,84.53
2022-09-15T22:11:07.991Z,84.50
2022-09-15T22:13:39.177Z,84.27
2022-09-15T22:16:09.059Z,84.22
2022-09-15T22:18:37.185Z,84.19
2022-09-15T22:21:05.624Z,84.15
2022-09-15T22:23:32.642Z,83.99
2022-09-15T22:26:02.461Z,84.01
2022-09-15T22:28:29.503Z,84.02
2022-09-15T22:30:58.536Z,84.26
2022-09-15T22:33:26.025Z,84.41
2022-09-15T22:35:52.859Z,84.57
2022-09-15T22:38:19.818Z,84.52
2022-09-15T22:40:46.676Z,84.55
2022-09-15T22:43:13.625Z,84.76
2022-09-15T22:45:40.923Z,84.78
2022-09-15T22:48:07.965Z,84.89
2022-09-15T22:50:34.967Z,84.95
2022-09-15T22:53:01.937Z,84.77
2022-09-15T22:55:30.963Z,84.90
2022-09-15T22:57:58.205Z,84.85
2022-09-15T23:00:25.268Z,84.93
2022-09-15T23:02:52.733Z,84.99
2022-09-15T23:05:19.774Z,85.03
2022-09-15T23:07:46.493Z,85.09
2022-09-15T23:10:13.294Z,85.01
2022-09-15T23:12:40.124Z,85.31
2022-09-15T23:15:07.539Z,85.33
2022-09-15T23:17:34.893Z,85.38
2022-09-15T23:20:01.978Z,85.48
2022-09-15T23:22:28.757Z,85.45
2022-09-15T23:24:55.464Z,85.35
2022-09-15T23:27:22.171Z,85.32
2022-09-15T23:29:48.887Z,85.29
2022-09-15T23:32:15.840Z,85.21
2022-09-15T23:34:42.607Z,85.15
2022-09-15T23:37:09.330Z,85.09
2022-09-15T23:39:36.120Z,85.26
2022-09-15T23:42:02.983Z,85.15
2022-09-15T23:44:29.727Z,85.31
2022-09-15T23:46:56.495Z,85.21
2022-09-15T23:49:23.410Z,85.13
2022-09-15T23:51:50.097Z,85.00
2022-09-15T23:54:16.894Z,84.97
2022-09-15T23:56:43.702Z,85.02
2022-09-15T23:59:10.405Z,85.03
